Soquel, California
Current Conditions -  °F | °C
As of 12:53 PM on Thursday 20 Nov 2014 (Local Time) from KWVI Reporting Station
Overcast Overcast  
Wind Chill: 61°   Ceiling: 1000
Heat Index: 61°   Visibility: 10mi
Dew Point: 57°   Wind: 6mph
Humidity: 87%   Direction: 190°S
Pressure: 30.07"   Gusts: NA
Location:  36.99°N, 121.95°W
Report Text: KWVI 202053Z AUTO 19005KT 10SM BKN010 BKN015 OVC100 16/14 A3007 RMK AO2 CIG 008V013 SLP183 T01610139 58016
Loading
Personal Weather Stations






























Interactive Weather Map New forecast layout! Learn more

10-Day Weather Forecast

Advertisements
Track Severe Weather on mobile